Map

Track Data

SID SEASON NUMBER BASIN SUBBASIN NAME ISO_TIME NATURE LAT LON WMO_WIND WMO_PRES WMO_AGENCY TRACK_TYPE DIST2LAND LANDFALL IFLAG USA_AGENCY USA_ATCF_ID USA_LAT USA_LON USA_RECORD USA_STATUS USA_WIND USA_PRES USA_SSHS USA_R34_NE USA_R34_SE USA_R34_SW USA_R34_NW USA_R50_NE USA_R50_SE USA_R50_SW USA_R50_NW USA_R64_NE USA_R64_SE USA_R64_SW USA_R64_NW USA_POCI USA_ROCI USA_RMW USA_EYE TOKYO_LAT TOKYO_LON TOKYO_GRADE TOKYO_WIND TOKYO_PRES TOKYO_R50_DIR TOKYO_R50_LONG TOKYO_R50_SHORT TOKYO_R30_DIR TOKYO_R30_LONG TOKYO_R30_SHORT TOKYO_LAND CMA_LAT CMA_LON CMA_CAT CMA_WIND CMA_PRES HKO_LAT HKO_LON HKO_CAT HKO_WIND HKO_PRES NEWDELHI_LAT NEWDELHI_LON NEWDELHI_GRADE NEWDELHI_WIND NEWDELHI_PRES NEWDELHI_CI NEWDELHI_DP NEWDELHI_POCI REUNION_LAT REUNION_LON REUNION_TYPE REUNION_WIND REUNION_PRES REUNION_TNUM REUNION_CI REUNION_RMW REUNION_R34_NE REUNION_R34_SE REUNION_R34_SW REUNION_R34_NW REUNION_R50_NE REUNION_R50_SE REUNION_R50_SW REUNION_R50_NW REUNION_R64_NE REUNION_R64_SE REUNION_R64_SW REUNION_R64_NW BOM_LAT BOM_LON BOM_TYPE BOM_WIND BOM_PRES BOM_TNUM BOM_CI BOM_RMW BOM_R34_NE BOM_R34_SE BOM_R34_SW BOM_R34_NW BOM_R50_NE BOM_R50_SE BOM_R50_SW BOM_R50_NW BOM_R64_NE BOM_R64_SE BOM_R64_SW BOM_R64_NW BOM_ROCI BOM_POCI BOM_EYE BOM_POS_METHOD BOM_PRES_METHOD NADI_LAT NADI_LON NADI_CAT NADI_WIND NADI_PRES WELLINGTON_LAT WELLINGTON_LON WELLINGTON_WIND WELLINGTON_PRES DS824_LAT DS824_LON DS824_STAGE DS824_WIND DS824_PRES TD9636_LAT TD9636_LON TD9636_STAGE TD9636_WIND TD9636_PRES TD9635_LAT TD9635_LON TD9635_WIND TD9635_PRES TD9635_ROCI NEUMANN_LAT NEUMANN_LON NEUMANN_CLASS NEUMANN_WIND NEUMANN_PRES MLC_LAT MLC_LON MLC_CLASS MLC_WIND MLC_PRES USA_GUST BOM_GUST BOM_GUST_PER REUNION_GUST REUNION_GUST_PER USA_SEAHGT USA_SEARAD_NE USA_SEARAD_SE USA_SEARAD_SW USA_SEARAD_NW STORM_SPEED STORM_DIR
1938172N18148 1938 28 WP MM NOT_NAMED 1938-06-21 09:00:00 NR 18.0000 147.700 main 2038 2003 __________O___ -1 18.0000 147.700 4 9 294
1938172N18148 1938 28 WP MM NOT_NAMED 1938-06-21 12:00:00 NR 18.1807 147.281 main 2003 1978 __________P___ -1 18.1807 147.281 4 9 295
1938172N18148 1938 28 WP MM NOT_NAMED 1938-06-21 15:00:00 NR 18.3587 146.879 main 1967 1943 __________P___ -1 18.3587 146.879 4 8 296
1938172N18148 1938 28 WP MM NOT_NAMED 1938-06-21 18:00:00 NR 18.5323 146.512 main 1943 1912 __________P___ -1 18.5323 146.512 4 7 298
1938172N18148 1938 28 WP MM NOT_NAMED 1938-06-21 21:00:00 NR 18.7000 146.200 main 1912 1885 __________O___ -1 18.7000 146.200 4 6 302
1938172N18148 1938 28 WP MM NOT_NAMED 1938-06-22 00:00:00 NR 18.8622 145.952 main 1885 1868 __________P___ -1 18.8622 145.952 4 5 307
1938172N18148 1938 28 WP MM NOT_NAMED 1938-06-22 03:00:00 NR 19.0267 145.742 main 1865 1837 __________P___ -1 19.0267 145.742 4 5 311
1938172N18148 1938 28 WP MM NOT_NAMED 1938-06-22 06:00:00 NR 19.2028 145.536 main 1837 1810 __________P___ -1 19.2028 145.536 4 6 312
1938172N18148 1938 28 WP MM NOT_NAMED 1938-06-22 09:00:00 NR 19.4000 145.300 main 1810 1780 __________O___ -1 19.4000 145.300 4 7 310
1938172N18148 1938 28 WP MM NOT_NAMED 1938-06-22 12:00:00 NR 19.6490 144.970 main 1780 1737 __________P___ -1 19.6490 144.970 4 8 308
1938172N18148 1938 28 WP MM NOT_NAMED 1938-06-22 15:00:00 NR 19.9154 144.608 main 1737 1696 __________P___ -1 19.9154 144.608 4 9 308
1938172N18148 1938 28 WP MM NOT_NAMED 1938-06-22 18:00:00 NR 20.1741 144.242 main 1691 1657 __________P___ -1 20.1741 144.242 4 8 306
1938172N18148 1938 28 WP MM NOT_NAMED 1938-06-22 21:00:00 NR 20.4000 143.900 main 1657 1637 __________O___ -1 20.4000 143.900 4 7 303
1938172N18148 1938 28 WP MM NOT_NAMED 1938-06-23 00:00:00 NR 20.5359 143.644 main 1633 1613 __________P___ -1 20.5359 143.644 4 5 298
1938172N18148 1938 28 WP MM NOT_NAMED 1938-06-23 03:00:00 NR 20.6416 143.413 main 1613 1594 __________P___ -1 20.6416 143.413 4 5 296
1938172N18148 1938 28 WP MM NOT_NAMED 1938-06-23 06:00:00 NR 20.7515 143.176 main 1584 1561 __________P___ -1 20.7515 143.176 4 5 298
1938172N18148 1938 28 WP MM NOT_NAMED 1938-06-23 09:00:00 NR 20.9000 142.900 main 1561 1523 __________O___ -1 20.9000 142.900 4 7 302
1938172N18148 1938 28 WP MM NOT_NAMED 1938-06-23 12:00:00 NR 21.1405 142.520 main 1523 1476 __________P___ -1 21.1405 142.520 4 9 305
1938172N18148 1938 28 WP MM NOT_NAMED 1938-06-23 15:00:00 NR 21.4208 142.101 main 1476 1429 __________P___ -1 21.4208 142.101 4 10 306
1938172N18148 1938 28 WP MM NOT_NAMED 1938-06-23 18:00:00 NR 21.7155 141.682 main 1429 1382 __________P___ -1 21.7155 141.682 4 9 308
1938172N18148 1938 28 WP MM NOT_NAMED 1938-06-23 21:00:00 NR 22.0000 141.300 main 1382 1350 __________O___ -1 22.0000 141.300 4 8 310
1938172N18148 1938 28 WP MM NOT_NAMED 1938-06-24 00:00:00 NR 22.2306 141.014 main 1350 1322 __________P___ -1 22.2306 141.014 4 7 312
1938172N18148 1938 28 WP MM NOT_NAMED 1938-06-24 03:00:00 NR 22.4492 140.769 main 1322 1283 __________P___ -1 22.4492 140.769 4 6 315
1938172N18148 1938 28 WP MM NOT_NAMED 1938-06-24 06:00:00 NR 22.6682 140.539 main 1279 1251 __________P___ -1 22.6682 140.539 4 6 316
1938172N18148 1938 28 WP MM NOT_NAMED 1938-06-24 09:00:00 NR 22.9000 140.300 main 1251 1210 __________O___ -1 22.9000 140.300 4 7 315
1938172N18148 1938 28 WP MM NOT_NAMED 1938-06-24 12:00:00 NR 23.1690 139.990 main 1210 1179 __________P___ -1 23.1690 139.990 4 8 314
1938172N18148 1938 28 WP MM NOT_NAMED 1938-06-24 15:00:00 NR 23.4504 139.671 main 1168 1138 __________P___ -1 23.4504 139.671 4 8 314
1938172N18148 1938 28 WP MM NOT_NAMED 1938-06-24 18:00:00 NR 23.7315 139.365 main 1138 1097 __________P___ -1 23.7315 139.365 4 8 316
1938172N18148 1938 28 WP MM NOT_NAMED 1938-06-24 21:00:00 NR 24.0000 139.100 main 1097 1070 __________O___ -1 24.0000 139.100 4 7 323
1938172N18148 1938 28 WP MM NOT_NAMED 1938-06-25 00:00:00 NR 24.2592 138.927 main 1059 1035 __________P___ -1 24.2592 138.927 4 6 331
1938172N18148 1938 28 WP MM NOT_NAMED 1938-06-25 03:00:00 NR 24.5018 138.792 main 1035 1010 __________P___ -1 24.5018 138.792 4 5 332
1938172N18148 1938 28 WP MM NOT_NAMED 1938-06-25 06:00:00 NR 24.7186 138.661 main 1010 984 __________P___ -1 24.7186 138.661 4 5 326
1938172N18148 1938 28 WP MM NOT_NAMED 1938-06-25 09:00:00 NR 24.9000 138.500 main 984 957 __________O___ -1 24.9000 138.500 4 5 312
1938172N18148 1938 28 WP MM NOT_NAMED 1938-06-25 12:00:00 NR 25.0607 138.237 main 955 939 __________P___ -1 25.0607 138.237 4 6 299
1938172N18148 1938 28 WP MM NOT_NAMED 1938-06-25 15:00:00 NR 25.1830 137.943 main 937 917 __________P___ -1 25.1830 137.943 4 6 291
1938172N18148 1938 28 WP MM NOT_NAMED 1938-06-25 18:00:00 NR 25.2638 137.652 main 917 898 __________P___ -1 25.2638 137.652 4 5 283
1938172N18148 1938 28 WP MM NOT_NAMED 1938-06-25 21:00:00 NR 25.3000 137.400 main 898 892 __________O___ -1 25.3000 137.400 4 4 276
1938172N18148 1938 28 WP MM NOT_NAMED 1938-06-26 00:00:00 NR 25.3008 137.252 main 892 879 __________P___ -1 25.3008 137.252 4 2 260
1938172N18148 1938 28 WP MM NOT_NAMED 1938-06-26 03:00:00 NR 25.2594 137.142 main 879 879 __________P___ -1 25.2594 137.142 4 2 240
1938172N18148 1938 28 WP MM NOT_NAMED 1938-06-26 06:00:00 NR 25.1883 137.037 main 882 882 __________P___ -1 25.1883 137.037 4 3 234
1938172N18148 1938 28 WP MM NOT_NAMED 1938-06-26 09:00:00 NR 25.1000 136.900 main 885 879 __________O___ -1 25.1000 136.900 4 4 240
1938172N18148 1938 28 WP MM NOT_NAMED 1938-06-26 12:00:00 NR 25.0024 136.673 main 882 875 __________P___ -1 25.0024 136.673 4 5 245
1938172N18148 1938 28 WP MM NOT_NAMED 1938-06-26 15:00:00 NR 24.8928 136.415 main 875 869 __________P___ -1 24.8928 136.415 4 5 246
1938172N18148 1938 28 WP MM NOT_NAMED 1938-06-26 18:00:00 NR 24.7868 136.148 main 868 868 __________P___ -1 24.7868 136.148 4 5 248
1938172N18148 1938 28 WP MM NOT_NAMED 1938-06-26 21:00:00 NR 24.7000 135.900 main 868 857 __________O___ -1 24.7000 135.900 4 4 250
1938172N18148 1938 28 WP MM NOT_NAMED 1938-06-27 00:00:00 NR 24.6410 135.708 main 866 855 __________P___ -1 24.6410 135.708 4 3 254
1938172N18148 1938 28 WP MM NOT_NAMED 1938-06-27 03:00:00 NR 24.6047 135.535 main 855 850 __________P___ -1 24.6047 135.535 4 3 261
1938172N18148 1938 28 WP MM NOT_NAMED 1938-06-27 06:00:00 NR 24.5910 135.370 main 850 840 __________P___ -1 24.5910 135.370 4 3 269
1938172N18148 1938 28 WP MM NOT_NAMED 1938-06-27 09:00:00 NR 24.6000 135.200 main 840 829 __________O___ -1 24.6000 135.200 4 4 273
1938172N18148 1938 28 WP MM NOT_NAMED 1938-06-27 12:00:00 NR 24.6083 134.979 main 829 820 __________P___ -1 24.6083 134.979 4 4 276
1938172N18148 1938 28 WP MM NOT_NAMED 1938-06-27 15:00:00 NR 24.6402 134.755 main 820 800 __________P___ -1 24.6402 134.755 4 4 284
1938172N18148 1938 28 WP MM NOT_NAMED 1938-06-27 18:00:00 NR 24.7020 134.554 main 800 781 __________P___ -1 24.7020 134.554 4 4 296
1938172N18148 1938 28 WP MM NOT_NAMED 1938-06-27 21:00:00 NR 24.8000 134.400 main 781 767 __________O___ -1 24.8000 134.400 4 3 311
1938172N18148 1938 28 WP MM NOT_NAMED 1938-06-28 00:00:00 NR 24.9104 134.293 main 767 742 __________P___ -1 24.9104 134.293 4 3 330
1938172N18148 1938 28 WP MM NOT_NAMED 1938-06-28 03:00:00 NR 25.0597 134.238 main 742 732 __________P___ -1 25.0597 134.238 4 3 355
1938172N18148 1938 28 WP MM NOT_NAMED 1938-06-28 06:00:00 NR 25.2542 134.240 main 722 707 __________P___ -1 25.2542 134.240 4 4 8
1938172N18148 1938 28 WP MM NOT_NAMED 1938-06-28 09:00:00 NR 25.5000 134.300 main 707 683 __________O___ -1 25.5000 134.300 4 6 15
1938172N18148 1938 28 WP MM NOT_NAMED 1938-06-28 12:00:00 NR 25.7873 134.389 main 683 660 __________P___ -1 25.7873 134.389 4 7 19
1938172N18148 1938 28 WP MM NOT_NAMED 1938-06-28 15:00:00 NR 26.1247 134.538 main 660 633 __________P___ -1 26.1247 134.538 4 8 24
1938172N18148 1938 28 WP MM NOT_NAMED 1938-06-28 18:00:00 NR 26.4997 134.743 main 633 611 __________P___ -1 26.4997 134.743 4 9 28
1938172N18148 1938 28 WP MM NOT_NAMED 1938-06-28 21:00:00 NR 26.9000 135.000 main 611 595 __________O___ -1 26.9000 135.000 4 9 32
1938172N18148 1938 28 WP MM NOT_NAMED 1938-06-29 00:00:00 NR 27.2545 135.273 main 593 580 __________P___ -1 27.2545 135.273 4 9 36
1938172N18148 1938 28 WP MM NOT_NAMED 1938-06-29 03:00:00 NR 27.6371 135.599 main 586 576 __________P___ -1 27.6371 135.599 4 10 37
1938172N18148 1938 28 WP MM NOT_NAMED 1938-06-29 06:00:00 NR 28.0761 135.974 main 576 538 __________P___ -1 28.0761 135.974 4 12 36
1938172N18148 1938 28 WP MM NOT_NAMED 1938-06-29 09:00:00 NR 28.6000 136.400 main 538 489 __________O___ -1 28.6000 136.400 4 13 35
1938172N18148 1938 28 WP MM NOT_NAMED 1938-06-29 12:00:00 NR 29.1232 136.798 main 489 433 __________P___ -1 29.1232 136.798 4 14 33
1938172N18148 1938 28 WP MM NOT_NAMED 1938-06-29 15:00:00 NR 29.7467 137.253 main 436 374 __________P___ -1 29.7467 137.253 4 17 32
1938172N18148 1938 28 WP MM NOT_NAMED 1938-06-29 18:00:00 NR 30.5219 137.807 main 374 330 __________P___ -1 30.5219 137.807 4 21 31
1938172N18148 1938 28 WP MM NOT_NAMED 1938-06-29 21:00:00 NR 31.5000 138.500 main 329 226 __________O___ -1 31.5000 138.500 4 25 31
1938172N18148 1938 28 WP MM NOT_NAMED 1938-06-30 00:00:00 NR 32.6750 139.298 main 216 104 __________P___ -1 32.6750 139.298 4 30 30
1938172N18148 1938 28 WP MM NOT_NAMED 1938-06-30 03:00:00 NR 34.0497 140.266 main 106 49 __________P___ -1 34.0497 140.266 4 34 31
1938172N18148 1938 28 WP MM NOT_NAMED 1938-06-30 06:00:00 NR 35.5743 141.424 main 46 46 __________P___ -1 35.5743 141.424 4 38 33
1938172N18148 1938 28 WP MM NOT_NAMED 1938-06-30 09:00:00 NR 37.2000 142.800 main 159 159 __________O___ -1 37.2000 142.800 4 42 36
1938172N18148 1938 28 WP MM NOT_NAMED 1938-06-30 12:00:00 NR 38.9771 144.519 main 213 213 __________P___ -1 38.9771 144.519 4 46 38
1938172N18148 1938 28 WP MM NOT_NAMED 1938-06-30 15:00:00 NR 40.8027 146.485 main 272 230 __________P___ -1 40.8027 146.485 4 47 41
1938172N18148 1938 28 WP MM NOT_NAMED 1938-06-30 18:00:00 NR 42.5240 148.543 main 251 194 __________P___ -1 42.5240 148.543 4 44 43
1938172N18148 1938 28 WP MM NOT_NAMED 1938-06-30 21:00:00 NR 44.0000 150.500 main 188 169 __________O___ -1 44.0000 150.500 4 37 46
1938172N18148 1938 28 WP MM NOT_NAMED 1938-07-01 00:00:00 NR 45.0807 152.207 main 178 178 __________P___ -1 45.0807 152.207 4 30 50
1938172N18148 1938 28 WP MM NOT_NAMED 1938-07-01 03:00:00 NR 45.9292 153.707 main 254 254 __________P___ -1 45.9292 153.707 4 25 51
1938172N18148 1938 28 WP MM NOT_NAMED 1938-07-01 06:00:00 NR 46.6387 154.977 main 355 301 __________P___ -1 46.6387 154.977 4 21 49
1938172N18148 1938 28 WP MM NOT_NAMED 1938-07-01 09:00:00 NR 47.3000 156.000 main 302 244 __________O___ -1 47.3000 156.000 7 20 43
1938172N18148 1938 28 WP MM NOT_NAMED 1938-07-01 12:00:00 NR 48.0932 156.972 main 240 197 __________P___ -1 48.0932 156.972 7 19 36
1938172N18148 1938 28 WP MM NOT_NAMED 1938-07-01 15:00:00 NR 48.8585 157.681 main 193 174 __________P___ -1 48.8585 157.681 7 17 27
1938172N18148 1938 28 WP MM NOT_NAMED 1938-07-01 18:00:00 NR 49.5700 158.100 main 167 130 __________P___ -1 49.5700 158.100 7 14 14
1938172N18148 1938 28 WP MM NOT_NAMED 1938-07-01 21:00:00 NR 50.2000 158.200 main 130 73 __________O___ -1 50.2000 158.200 7 13 356
1938172N18148 1938 28 WP MM NOT_NAMED 1938-07-02 00:00:00 NR 50.8421 157.964 main 73 0 __________P___ -1 50.8421 157.964 7 13 337
1938172N18148 1938 28 WP MM NOT_NAMED 1938-07-02 03:00:00 NR 51.3827 157.412 main 0 0 __________P___ -1 51.3827 157.412 7 12 319
1938172N18148 1938 28 WP MM NOT_NAMED 1938-07-02 06:00:00 NR 51.7563 156.701 main 0 0 __________P___ -1 51.7563 156.701 7 10 301
1938172N18148 1938 28 WP MM NOT_NAMED 1938-07-02 09:00:00 NR 51.9000 156.000 main 34 34 __________O___ -1 51.9000 156.000 7 8 268
1938172N18148 1938 28 WP MM NOT_NAMED 1938-07-02 12:00:00 NR 51.7216 155.381 main 75 75 __________P___ -1 51.7216 155.381 7 9 231
1938172N18148 1938 28 WP MM NOT_NAMED 1938-07-02 15:00:00 NR 51.3279 154.850 main 101 78 __________P___ -1 51.3279 154.850 7 10 211
1938172N18148 1938 28 WP MM NOT_NAMED 1938-07-02 18:00:00 NR 50.8451 154.522 main 74 50 __________P___ -1 50.8451 154.522 7 10 193
1938172N18148 1938 28 WP MM NOT_NAMED 1938-07-02 21:00:00 NR 50.4000 154.500 main 50 28 __________O___ -1 50.4000 154.500 7 8 165
1938172N18148 1938 28 WP MM NOT_NAMED 1938-07-03 00:00:00 NR 50.0901 154.850 main 28 7 __________P___ -1 50.0901 154.850 7 8 128
1938172N18148 1938 28 WP MM NOT_NAMED 1938-07-03 03:00:00 NR 49.8993 155.501 main 13 13 __________P___ -1 49.8993 155.501 7 10 108
1938172N18148 1938 28 WP MM NOT_NAMED 1938-07-03 06:00:00 NR 49.7836 156.351 main 56 56 __________P___ -1 49.7836 156.351 7 12 100
1938172N18148 1938 28 WP MM NOT_NAMED 1938-07-03 09:00:00 NR 49.7000 157.300 main 114 __________O___ -1 49.7000 157.300 7 12 98

Digital Typhoon Data and Search

About IBTrACS Database

This database is a web-friendly format of International Best Track Archive for Climate Stewardship (IBTrACS), a global best track data archive curated by NOAA dating back to 1842.

Updated: 2021-12-06